< < Back
Terminal Aerodrome Forecast


Current Version              Previous Versions:   1  2  3  4  5  6  7  8  9  

Terminal Aerodrome Forecast

427
FTUS44 KHUN 282324
TAFHSV
TAF
KHSV 282324Z 2900/2924 35006KT P6SM FEW050
      TEMPO 2906/2910 SCT050=

Latest METAR

515
SAUS80 KWBC 292100
MTRHSV
METAR KHSV 292053Z 02009G15KT 10SM SCT041 27/11 A3007 RMK AO2 SLP174
T02670106 58005


USA.gov is the U.S. government's official web portal to all federal, state and local government web resources and services.